sensor_id;sensor_type;location;lat;lon;timestamp;pressure;altitude;pressure_sealevel;temperature;humidity
21824;BME280;11074;48.596;9.238;2022-11-02T00:01:42;98894.88;;;12.79;82.30
21824;BME280;11074;48.596;9.238;2022-11-02T00:04:09;98898.91;;;12.82;81.94
21824;BME280;11074;48.596;9.238;2022-11-02T00:06:35;98900.78;;;12.81;80.70
21824;BME280;11074;48.596;9.238;2022-11-02T00:09:01;98902.41;;;12.82;80.70
21824;BME280;11074;48.596;9.238;2022-11-02T00:11:27;98898.13;;;12.64;80.14
21824;BME280;11074;48.596;9.238;2022-11-02T00:13:52;98905.13;;;12.65;80.68
21824;BME280;11074;48.596;9.238;2022-11-02T00:16:21;98896.28;;;12.65;81.54
21824;BME280;11074;48.596;9.238;2022-11-02T00:18:50;98895.94;;;12.61;82.16
21824;BME280;11074;48.596;9.238;2022-11-02T00:21:18;98903.56;;;12.69;82.87
21824;BME280;11074;48.596;9.238;2022-11-02T00:23:46;98903.00;;;12.67;81.43
21824;BME280;11074;48.596;9.238;2022-11-02T00:26:13;98904.88;;;12.67;78.78
21824;BME280;11074;48.596;9.238;2022-11-02T00:28:39;98905.97;;;12.49;79.48
21824;BME280;11074;48.596;9.238;2022-11-02T00:31:04;98902.88;;;12.41;80.08
21824;BME280;11074;48.596;9.238;2022-11-02T00:33:30;98911.50;;;12.43;80.57
21824;BME280;11074;48.596;9.238;2022-11-02T00:35:56;98914.34;;;12.53;81.20
21824;BME280;11074;48.596;9.238;2022-11-02T00:38:22;98916.22;;;12.52;81.13
21824;BME280;11074;48.596;9.238;2022-11-02T00:40:48;98921.81;;;12.51;79.72
21824;BME280;11074;48.596;9.238;2022-11-02T00:43:13;98927.50;;;12.54;79.71
21824;BME280;11074;48.596;9.238;2022-11-02T00:45:39;98931.25;;;12.53;80.02
21824;BME280;11074;48.596;9.238;2022-11-02T00:48:05;98928.66;;;12.42;79.04
21824;BME280;11074;48.596;9.238;2022-11-02T00:50:31;98933.94;;;12.37;79.46
21824;BME280;11074;48.596;9.238;2022-11-02T00:52:57;98933.28;;;12.30;79.83
21824;BME280;11074;48.596;9.238;2022-11-02T00:55:23;98928.81;;;12.35;78.38
21824;BME280;11074;48.596;9.238;2022-11-02T00:57:49;98924.19;;;12.14;79.63
21824;BME280;11074;48.596;9.238;2022-11-02T01:00:15;98932.00;;;12.15;80.40
21824;BME280;11074;48.596;9.238;2022-11-02T01:02:41;98928.56;;;12.20;78.19
21824;BME280;11074;48.596;9.238;2022-11-02T01:05:08;98934.34;;;12.29;81.70
21824;BME280;11074;48.596;9.238;2022-11-02T01:07:35;98925.50;;;12.28;81.87
21824;BME280;11074;48.596;9.238;2022-11-02T01:10:03;98935.97;;;12.30;79.32
21824;BME280;11074;48.596;9.238;2022-11-02T01:12:29;98922.47;;;12.25;79.19
21824;BME280;11074;48.596;9.238;2022-11-02T01:14:55;98927.59;;;12.09;80.20
21824;BME280;11074;48.596;9.238;2022-11-02T01:17:20;98933.28;;;12.13;79.34
21824;BME280;11074;48.596;9.238;2022-11-02T01:19:46;98926.56;;;12.10;80.78
21824;BME280;11074;48.596;9.238;2022-11-02T01:22:14;98928.41;;;12.10;80.33
21824;BME280;11074;48.596;9.238;2022-11-02T01:24:39;98923.13;;;12.15;82.07
21824;BME280;11074;48.596;9.238;2022-11-02T01:27:05;98917.44;;;12.11;81.51
21824;BME280;11074;48.596;9.238;2022-11-02T01:29:31;98921.50;;;12.14;78.92
21824;BME280;11074;48.596;9.238;2022-11-02T01:31:56;98914.19;;;12.09;79.50
21824;BME280;11074;48.596;9.238;2022-11-02T01:34:23;98914.84;;;12.16;80.81
21824;BME280;11074;48.596;9.238;2022-11-02T01:36:49;98916.88;;;12.09;79.36
21824;BME280;11074;48.596;9.238;2022-11-02T01:39:15;98916.06;;;12.09;78.93
21824;BME280;11074;48.596;9.238;2022-11-02T01:41:41;98912.00;;;12.06;79.10
21824;BME280;11074;48.596;9.238;2022-11-02T01:44:33;98914.94;;;12.05;79.68
21824;BME280;11074;48.596;9.238;2022-11-02T01:47:04;98906.16;;;12.09;80.71
21824;BME280;11074;48.596;9.238;2022-11-02T01:49:36;98898.38;;;12.08;79.38
21824;BME280;11074;48.596;9.238;2022-11-02T01:52:24;98898.03;;;12.04;79.11
21824;BME280;11074;48.596;9.238;2022-11-02T01:55:02;98893.81;;;12.08;80.56
21824;BME280;11074;48.596;9.238;2022-11-02T01:57:31;98888.44;;;12.08;79.98
21824;BME280;11074;48.596;9.238;2022-11-02T02:00:10;98889.25;;;12.09;80.15
21824;BME280;11074;48.596;9.238;2022-11-02T02:02:51;98884.16;;;12.07;78.38
21824;BME280;11074;48.596;9.238;2022-11-02T02:05:22;98884.97;;;12.08;79.32
21824;BME280;11074;48.596;9.238;2022-11-02T02:07:50;98874.97;;;12.03;81.27
21824;BME280;11074;48.596;9.238;2022-11-02T02:10:17;98874.31;;;11.96;79.56
21824;BME280;11074;48.596;9.238;2022-11-02T02:12:43;98879.75;;;12.01;81.10
21824;BME280;11074;48.596;9.238;2022-11-02T02:15:11;98870.69;;;12.02;80.87
21824;BME280;11074;48.596;9.238;2022-11-02T02:20:51;98870.41;;;12.04;81.59
21824;BME280;11074;48.596;9.238;2022-11-02T02:23:30;98868.78;;;12.03;81.92
21824;BME280;11074;48.596;9.238;2022-11-02T02:26:43;98866.84;;;11.98;80.71
21824;BME280;11074;48.596;9.238;2022-11-02T02:29:33;98858.25;;;11.96;82.07
21824;BME280;11074;48.596;9.238;2022-11-02T02:35:16;98858.31;;;12.01;82.36
21824;BME280;11074;48.596;9.238;2022-11-02T02:37:59;98853.78;;;12.02;82.20
21824;BME280;11074;48.596;9.238;2022-11-02T02:40:45;98846.31;;;12.04;82.48
21824;BME280;11074;48.596;9.238;2022-11-02T02:43:36;98850.03;;;12.03;82.24
21824;BME280;11074;48.596;9.238;2022-11-02T02:46:21;98854.00;;;12.00;82.72
21824;BME280;11074;48.596;9.238;2022-11-02T02:48:51;98853.22;;;12.00;81.81
21824;BME280;11074;48.596;9.238;2022-11-02T02:51:27;98855.78;;;11.95;80.32
21824;BME280;11074;48.596;9.238;2022-11-02T02:54:02;98850.13;;;11.91;82.16
21824;BME280;11074;48.596;9.238;2022-11-02T02:56:38;98849.47;;;11.84;82.14
21824;BME280;11074;48.596;9.238;2022-11-02T02:59:10;98847.38;;;11.86;82.69
21824;BME280;11074;48.596;9.238;2022-11-02T03:01:41;98850.88;;;11.87;83.05
21824;BME280;11074;48.596;9.238;2022-11-02T03:04:11;98841.19;;;11.86;82.87
21824;BME280;11074;48.596;9.238;2022-11-02T03:06:38;98839.81;;;11.83;81.82
21824;BME280;11074;48.596;9.238;2022-11-02T03:09:27;98836.97;;;11.73;82.51
21824;BME280;11074;48.596;9.238;2022-11-02T03:17:49;98848.25;;;11.75;82.95
21824;BME280;11074;48.596;9.238;2022-11-02T03:20:39;98849.88;;;11.76;83.04
21824;BME280;11074;48.596;9.238;2022-11-02T03:23:17;98847.78;;;11.78;83.03
21824;BME280;11074;48.596;9.238;2022-11-02T03:31:56;98851.75;;;11.76;82.41
21824;BME280;11074;48.596;9.238;2022-11-02T03:34:42;98848.72;;;11.72;82.81
21824;BME280;11074;48.596;9.238;2022-11-02T03:37:21;98858.41;;;11.73;83.54
21824;BME280;11074;48.596;9.238;2022-11-02T03:39:53;98857.09;;;11.76;83.17
21824;BME280;11074;48.596;9.238;2022-11-02T03:42:26;98854.66;;;11.74;83.84
21824;BME280;11074;48.596;9.238;2022-11-02T03:44:58;98858.63;;;11.72;83.52
21824;BME280;11074;48.596;9.238;2022-11-02T03:47:26;98859.19;;;11.74;82.62
21824;BME280;11074;48.596;9.238;2022-11-02T03:49:57;98858.06;;;11.70;82.43
21824;BME280;11074;48.596;9.238;2022-11-02T03:52:29;98867.75;;;11.71;83.03
21824;BME280;11074;48.596;9.238;2022-11-02T03:55:18;98876.44;;;11.66;83.85
21824;BME280;11074;48.596;9.238;2022-11-02T03:57:51;98867.59;;;11.66;84.22
21824;BME280;11074;48.596;9.238;2022-11-02T04:00:23;98867.38;;;11.67;84.04
21824;BME280;11074;48.596;9.238;2022-11-02T04:02:54;98872.50;;;11.69;84.23
21824;BME280;11074;48.596;9.238;2022-11-02T04:05:31;98863.88;;;11.67;83.63
21824;BME280;11074;48.596;9.238;2022-11-02T04:07:58;98867.38;;;11.67;83.35
21824;BME280;11074;48.596;9.238;2022-11-02T04:10:42;98873.13;;;11.59;82.43
21824;BME280;11074;48.596;9.238;2022-11-02T04:13:27;98866.59;;;11.55;83.45
21824;BME280;11074;48.596;9.238;2022-11-02T04:16:13;98873.03;;;11.54;83.64
21824;BME280;11074;48.596;9.238;2022-11-02T04:18:39;98877.00;;;11.51;83.43
21824;BME280;11074;48.596;9.238;2022-11-02T04:21:25;98886.88;;;11.51;85.07
21824;BME280;11074;48.596;9.238;2022-11-02T04:23:51;98871.78;;;11.45;84.25
21824;BME280;11074;48.596;9.238;2022-11-02T04:26:36;98876.31;;;11.44;84.50
21824;BME280;11074;48.596;9.238;2022-11-02T04:29:02;98887.38;;;11.48;84.62
21824;BME280;11074;48.596;9.238;2022-11-02T04:31:28;98881.91;;;11.43;83.44
21824;BME280;11074;48.596;9.238;2022-11-02T04:33:54;98890.53;;;11.45;84.60
21824;BME280;11074;48.596;9.238;2022-11-02T04:36:19;98889.59;;;11.39;84.06
21824;BME280;11074;48.596;9.238;2022-11-02T04:38:45;98883.69;;;11.37;84.65
21824;BME280;11074;48.596;9.238;2022-11-02T04:41:17;98887.53;;;11.41;83.91
21824;BME280;11074;48.596;9.238;2022-11-02T04:44:02;98893.66;;;11.42;84.66
21824;BME280;11074;48.596;9.238;2022-11-02T04:46:32;98891.81;;;11.42;85.08
21824;BME280;11074;48.596;9.238;2022-11-02T04:48:58;98899.53;;;11.39;84.36
21824;BME280;11074;48.596;9.238;2022-11-02T04:51:26;98900.56;;;11.38;84.49
21824;BME280;11074;48.596;9.238;2022-11-02T04:53:54;98898.94;;;11.37;84.51
21824;BME280;11074;48.596;9.238;2022-11-02T04:56:21;98900.00;;;11.36;83.63
21824;BME280;11074;48.596;9.238;2022-11-02T04:58:56;98897.63;;;11.39;83.17
21824;BME280;11074;48.596;9.238;2022-11-02T05:01:25;98894.75;;;11.41;83.92
21824;BME280;11074;48.596;9.238;2022-11-02T05:03:53;98904.63;;;11.40;83.75
21824;BME280;11074;48.596;9.238;2022-11-02T05:06:21;98913.41;;;11.24;84.03
21824;BME280;11074;48.596;9.238;2022-11-02T05:08:47;98918.28;;;11.27;84.27
21824;BME280;11074;48.596;9.238;2022-11-02T05:11:13;98910.84;;;11.29;83.82
21824;BME280;11074;48.596;9.238;2022-11-02T05:13:41;98908.72;;;11.31;83.88
21824;BME280;11074;48.596;9.238;2022-11-02T05:16:12;98916.06;;;11.36;84.41
21824;BME280;11074;48.596;9.238;2022-11-02T05:18:38;98918.16;;;11.34;83.46
21824;BME280;11074;48.596;9.238;2022-11-02T05:21:04;98920.03;;;11.33;83.15
21824;BME280;11074;48.596;9.238;2022-11-02T05:23:30;98925.03;;;11.30;82.77
21824;BME280;11074;48.596;9.238;2022-11-02T05:26:00;98928.53;;;11.30;83.01
21824;BME280;11074;48.596;9.238;2022-11-02T05:28:27;98932.50;;;11.28;83.01
21824;BME280;11074;48.596;9.238;2022-11-02T05:30:54;98936.13;;;11.22;83.06
21824;BME280;11074;48.596;9.238;2022-11-02T05:33:20;98941.00;;;11.25;83.49
21824;BME280;11074;48.596;9.238;2022-11-02T05:35:46;98936.47;;;11.25;84.12
21824;BME280;11074;48.596;9.238;2022-11-02T05:38:12;98934.00;;;11.24;83.61
21824;BME280;11074;48.596;9.238;2022-11-02T05:40:38;98943.91;;;11.23;83.69
21824;BME280;11074;48.596;9.238;2022-11-02T05:43:08;98936.13;;;11.22;83.93
21824;BME280;11074;48.596;9.238;2022-11-02T05:45:35;98942.28;;;11.22;83.99
21824;BME280;11074;48.596;9.238;2022-11-02T05:48:02;98944.63;;;11.19;83.23
21824;BME280;11074;48.596;9.238;2022-11-02T05:50:31;98950.53;;;11.21;84.72
21824;BME280;11074;48.596;9.238;2022-11-02T05:52:57;98943.56;;;11.20;84.50
21824;BME280;11074;48.596;9.238;2022-11-02T05:55:23;98934.94;;;11.18;84.01
21824;BME280;11074;48.596;9.238;2022-11-02T05:57:53;98937.31;;;11.14;84.84
21824;BME280;11074;48.596;9.238;2022-11-02T06:00:21;98942.88;;;11.13;84.78
21824;BME280;11074;48.596;9.238;2022-11-02T06:02:48;98948.13;;;11.08;84.31
21824;BME280;11074;48.596;9.238;2022-11-02T06:05:14;98941.50;;;11.10;84.74
21824;BME280;11074;48.596;9.238;2022-11-02T06:07:40;98944.41;;;11.09;83.90
21824;BME280;11074;48.596;9.238;2022-11-02T06:10:06;98948.72;;;11.10;84.18
21824;BME280;11074;48.596;9.238;2022-11-02T06:12:32;98952.09;;;11.05;83.60
21824;BME280;11074;48.596;9.238;2022-11-02T06:14:58;98953.72;;;11.06;84.79
21824;BME280;11074;48.596;9.238;2022-11-02T06:17:24;98952.44;;;11.09;85.27
21824;BME280;11074;48.596;9.238;2022-11-02T06:19:50;98949.97;;;11.07;85.23
21824;BME280;11074;48.596;9.238;2022-11-02T06:22:16;98949.19;;;11.07;85.60
21824;BME280;11074;48.596;9.238;2022-11-02T06:24:42;98958.97;;;11.01;86.06
21824;BME280;11074;48.596;9.238;2022-11-02T06:27:07;98961.53;;;10.96;85.65
21824;BME280;11074;48.596;9.238;2022-11-02T06:29:33;98973.97;;;10.79;85.21
21824;BME280;11074;48.596;9.238;2022-11-02T06:31:59;98977.69;;;10.78;86.79
21824;BME280;11074;48.596;9.238;2022-11-02T06:34:24;98980.16;;;10.79;85.62
21824;BME280;11074;48.596;9.238;2022-11-02T06:36:50;98981.53;;;10.82;85.95
21824;BME280;11074;48.596;9.238;2022-11-02T06:39:16;98980.50;;;10.83;85.78
21824;BME280;11074;48.596;9.238;2022-11-02T06:41:41;98984.69;;;10.90;86.08
21824;BME280;11074;48.596;9.238;2022-11-02T06:44:07;98985.00;;;10.94;85.44
21824;BME280;11074;48.596;9.238;2022-11-02T06:46:33;98979.66;;;10.94;84.93
21824;BME280;11074;48.596;9.238;2022-11-02T06:48:59;98997.94;;;10.97;84.93
21824;BME280;11074;48.596;9.238;2022-11-02T06:51:24;98993.97;;;11.00;85.56
21824;BME280;11074;48.596;9.238;2022-11-02T06:53:50;98990.97;;;10.96;85.17
21824;BME280;11074;48.596;9.238;2022-11-02T06:56:16;99001.56;;;10.91;85.04
21824;BME280;11074;48.596;9.238;2022-11-02T06:58:41;99002.94;;;10.93;84.02
21824;BME280;11074;48.596;9.238;2022-11-02T07:01:07;99011.09;;;10.99;85.55
21824;BME280;11074;48.596;9.238;2022-11-02T07:03:34;99008.63;;;10.97;86.55
21824;BME280;11074;48.596;9.238;2022-11-02T07:06:01;99021.78;;;10.99;86.21
21824;BME280;11074;48.596;9.238;2022-11-02T07:08:27;99014.78;;;10.98;86.41
21824;BME280;11074;48.596;9.238;2022-11-02T07:10:54;99021.19;;;10.96;87.02
21824;BME280;11074;48.596;9.238;2022-11-02T07:13:20;99024.94;;;10.95;86.49
21824;BME280;11074;48.596;9.238;2022-11-02T07:15:46;99016.66;;;10.97;86.77
21824;BME280;11074;48.596;9.238;2022-11-02T07:18:12;99028.06;;;11.04;86.70
21824;BME280;11074;48.596;9.238;2022-11-02T07:20:38;99032.34;;;11.05;86.10
21824;BME280;11074;48.596;9.238;2022-11-02T07:23:04;99035.59;;;11.07;86.31
21824;BME280;11074;48.596;9.238;2022-11-02T07:25:31;99038.41;;;11.12;85.98
21824;BME280;11074;48.596;9.238;2022-11-02T07:27:59;99038.53;;;11.06;86.42
21824;BME280;11074;48.596;9.238;2022-11-02T07:30:27;99049.59;;;11.09;87.28
21824;BME280;11074;48.596;9.238;2022-11-02T07:32:52;99046.81;;;11.04;86.42
21824;BME280;11074;48.596;9.238;2022-11-02T07:35:18;99047.47;;;11.11;86.46
21824;BME280;11074;48.596;9.238;2022-11-02T07:38:03;99047.34;;;11.18;86.83
21824;BME280;11074;48.596;9.238;2022-11-02T07:40:33;99057.84;;;11.19;86.68
21824;BME280;11074;48.596;9.238;2022-11-02T07:43:00;99054.69;;;11.22;88.01
21824;BME280;11074;48.596;9.238;2022-11-02T07:45:26;99053.31;;;11.20;87.93
21824;BME280;11074;48.596;9.238;2022-11-02T07:47:54;99061.19;;;11.26;88.60
21824;BME280;11074;48.596;9.238;2022-11-02T07:50:23;99058.06;;;11.29;87.66
21824;BME280;11074;48.596;9.238;2022-11-02T07:52:52;99062.13;;;11.32;88.45
21824;BME280;11074;48.596;9.238;2022-11-02T07:55:22;99062.38;;;11.30;88.01
21824;BME280;11074;48.596;9.238;2022-11-02T07:58:03;99063.31;;;11.36;88.24
21824;BME280;11074;48.596;9.238;2022-11-02T08:00:36;99063.41;;;11.41;88.73
21824;BME280;11074;48.596;9.238;2022-11-02T08:03:04;99055.47;;;11.46;88.51
21824;BME280;11074;48.596;9.238;2022-11-02T08:05:33;99068.88;;;11.46;88.39
21824;BME280;11074;48.596;9.238;2022-11-02T08:08:01;99063.63;;;11.51;88.80
21824;BME280;11074;48.596;9.238;2022-11-02T08:10:29;99056.72;;;11.55;89.06
21824;BME280;11074;48.596;9.238;2022-11-02T08:12:56;99055.69;;;11.56;89.22
21824;BME280;11074;48.596;9.238;2022-11-02T08:15:23;99058.00;;;11.64;88.73
21824;BME280;11074;48.596;9.238;2022-11-02T08:18:21;99063.94;;;11.78;88.45
21824;BME280;11074;48.596;9.238;2022-11-02T08:20:47;99067.53;;;11.83;89.00
21824;BME280;11074;48.596;9.238;2022-11-02T08:23:15;99059.59;;;11.88;88.75
21824;BME280;11074;48.596;9.238;2022-11-02T08:25:43;99060.25;;;11.95;88.71
21824;BME280;11074;48.596;9.238;2022-11-02T08:28:18;99058.75;;;11.99;88.58
21824;BME280;11074;48.596;9.238;2022-11-02T08:30:45;99056.38;;;12.03;88.55
21824;BME280;11074;48.596;9.238;2022-11-02T08:33:13;99067.06;;;12.14;88.42
21824;BME280;11074;48.596;9.238;2022-11-02T08:35:41;99054.09;;;12.23;88.33
21824;BME280;11074;48.596;9.238;2022-11-02T08:38:08;99066.63;;;12.34;88.14
21824;BME280;11074;48.596;9.238;2022-11-02T08:40:35;99061.56;;;12.38;88.05
21824;BME280;11074;48.596;9.238;2022-11-02T08:43:07;99067.03;;;12.43;87.33
21824;BME280;11074;48.596;9.238;2022-11-02T08:45:35;99059.81;;;12.43;88.37
21824;BME280;11074;48.596;9.238;2022-11-02T08:48:01;99054.28;;;12.50;86.92
21824;BME280;11074;48.596;9.238;2022-11-02T08:50:27;99053.09;;;12.57;87.15
21824;BME280;11074;48.596;9.238;2022-11-02T08:52:53;99067.88;;;12.60;86.95
21824;BME280;11074;48.596;9.238;2022-11-02T08:55:19;99061.53;;;12.66;86.59
21824;BME280;11074;48.596;9.238;2022-11-02T08:57:50;99067.06;;;12.76;86.25
21824;BME280;11074;48.596;9.238;2022-11-02T09:00:19;99062.59;;;12.82;86.27
21824;BME280;11074;48.596;9.238;2022-11-02T09:03:02;99067.38;;;12.96;85.99
21824;BME280;11074;48.596;9.238;2022-11-02T09:05:35;99066.19;;;13.04;86.21
21824;BME280;11074;48.596;9.238;2022-11-02T09:08:04;99054.78;;;13.13;85.08
21824;BME280;11074;48.596;9.238;2022-11-02T09:10:34;99063.81;;;13.24;84.67
21824;BME280;11074;48.596;9.238;2022-11-02T09:13:03;99059.06;;;13.31;84.62
21824;BME280;11074;48.596;9.238;2022-11-02T09:15:29;99064.09;;;13.44;84.03
21824;BME280;11074;48.596;9.238;2022-11-02T09:17:55;99067.16;;;13.53;83.69
21824;BME280;11074;48.596;9.238;2022-11-02T09:20:21;99058.72;;;13.66;82.78
21824;BME280;11074;48.596;9.238;2022-11-02T09:22:48;99057.78;;;13.77;81.61
21824;BME280;11074;48.596;9.238;2022-11-02T09:25:15;99062.41;;;13.81;81.84
21824;BME280;11074;48.596;9.238;2022-11-02T09:27:42;99078.09;;;13.89;80.94
21824;BME280;11074;48.596;9.238;2022-11-02T09:30:10;99067.66;;;13.93;81.13
21824;BME280;11074;48.596;9.238;2022-11-02T09:32:36;99062.41;;;14.03;81.27
21824;BME280;11074;48.596;9.238;2022-11-02T09:35:06;99070.72;;;14.02;80.90
21824;BME280;11074;48.596;9.238;2022-11-02T09:37:33;99076.41;;;14.05;80.70
21824;BME280;11074;48.596;9.238;2022-11-02T09:39:59;99066.28;;;14.12;80.94
21824;BME280;11074;48.596;9.238;2022-11-02T09:42:55;99073.34;;;14.18;80.43
21824;BME280;11074;48.596;9.238;2022-11-02T09:45:24;99070.72;;;14.23;79.36
21824;BME280;11074;48.596;9.238;2022-11-02T09:47:57;99064.81;;;14.26;79.62
21824;BME280;11074;48.596;9.238;2022-11-02T09:50:37;99064.81;;;14.26;80.22
21824;BME280;11074;48.596;9.238;2022-11-02T09:53:09;99077.50;;;14.31;79.46
21824;BME280;11074;48.596;9.238;2022-11-02T09:55:48;99076.63;;;14.25;80.24
21824;BME280;11074;48.596;9.238;2022-11-02T09:58:23;99075.50;;;14.21;80.34
21824;BME280;11074;48.596;9.238;2022-11-02T10:00:58;99067.38;;;14.16;79.72
21824;BME280;11074;48.596;9.238;2022-11-02T10:06:20;99068.97;;;14.12;80.21
21824;BME280;11074;48.596;9.238;2022-11-02T10:09:24;99067.16;;;14.18;80.60
21824;BME280;11074;48.596;9.238;2022-11-02T10:14:38;99066.75;;;14.31;79.65
21824;BME280;11074;48.596;9.238;2022-11-02T10:19:54;99074.06;;;14.35;79.56
21824;BME280;11074;48.596;9.238;2022-11-02T10:22:21;99072.50;;;14.39;79.40
21824;BME280;11074;48.596;9.238;2022-11-02T10:24:50;99068.00;;;14.45;80.05
21824;BME280;11074;48.596;9.238;2022-11-02T10:27:23;99069.06;;;14.44;79.74
21824;BME280;11074;48.596;9.238;2022-11-02T10:30:02;99071.06;;;14.58;79.45
21824;BME280;11074;48.596;9.238;2022-11-02T10:32:31;99067.91;;;14.67;78.42
21824;BME280;11074;48.596;9.238;2022-11-02T10:34:59;99073.09;;;14.73;78.53
21824;BME280;11074;48.596;9.238;2022-11-02T10:37:47;99070.41;;;14.73;77.80
21824;BME280;11074;48.596;9.238;2022-11-02T10:46:31;99062.66;;;14.82;78.02
21824;BME280;11074;48.596;9.238;2022-11-02T10:52:03;99060.78;;;14.82;78.15
21824;BME280;11074;48.596;9.238;2022-11-02T10:54:30;99046.56;;;14.87;78.17
21824;BME280;11074;48.596;9.238;2022-11-02T10:56:57;99047.66;;;14.91;78.31
21824;BME280;11074;48.596;9.238;2022-11-02T10:59:24;99046.59;;;14.92;77.95
21824;BME280;11074;48.596;9.238;2022-11-02T11:04:31;99041.56;;;15.05;77.62
21824;BME280;11074;48.596;9.238;2022-11-02T11:07:04;99037.25;;;15.04;77.63
21824;BME280;11074;48.596;9.238;2022-11-02T11:09:52;99047.81;;;15.11;77.40
21824;BME280;11074;48.596;9.238;2022-11-02T11:12:33;99051.25;;;15.06;77.29
21824;BME280;11074;48.596;9.238;2022-11-02T11:15:04;99044.59;;;15.14;76.98
21824;BME280;11074;48.596;9.238;2022-11-02T11:17:39;99049.44;;;15.17;76.58
21824;BME280;11074;48.596;9.238;2022-11-02T11:20:25;99051.50;;;15.00;75.09
21824;BME280;11074;48.596;9.238;2022-11-02T11:23:15;99039.16;;;15.09;75.57
21824;BME280;11074;48.596;9.238;2022-11-02T11:25:41;99048.16;;;15.25;75.05
21824;BME280;11074;48.596;9.238;2022-11-02T11:31:15;99043.63;;;15.30;74.10
21824;BME280;11074;48.596;9.238;2022-11-02T11:33:47;99039.81;;;15.26;74.07
21824;BME280;11074;48.596;9.238;2022-11-02T11:36:38;99041.97;;;15.29;73.97
21824;BME280;11074;48.596;9.238;2022-11-02T11:39:24;99036.06;;;15.27;74.86
21824;BME280;11074;48.596;9.238;2022-11-02T11:41:51;99031.66;;;15.16;74.46
21824;BME280;11074;48.596;9.238;2022-11-02T11:44:16;99043.53;;;15.20;74.42
21824;BME280;11074;48.596;9.238;2022-11-02T11:46:50;99032.75;;;15.20;75.28
21824;BME280;11074;48.596;9.238;2022-11-02T11:49:28;99033.03;;;15.18;74.58
21824;BME280;11074;48.596;9.238;2022-11-02T11:51:57;99039.75;;;15.16;74.83
21824;BME280;11074;48.596;9.238;2022-11-02T11:54:31;99042.47;;;15.21;75.01
21824;BME280;11074;48.596;9.238;2022-11-02T11:57:16;99031.41;;;15.17;73.99
21824;BME280;11074;48.596;9.238;2022-11-02T11:59:47;99024.97;;;15.24;74.44
21824;BME280;11074;48.596;9.238;2022-11-02T12:02:34;99017.19;;;15.27;74.68
21824;BME280;11074;48.596;9.238;2022-11-02T12:05:15;99018.31;;;15.36;74.48
21824;BME280;11074;48.596;9.238;2022-11-02T12:08:19;99009.28;;;15.62;73.39
21824;BME280;11074;48.596;9.238;2022-11-02T12:10:57;99007.50;;;15.88;71.95
21824;BME280;11074;48.596;9.238;2022-11-02T12:28:56;98987.34;;;16.91;66.62
21824;BME280;11074;48.596;9.238;2022-11-02T12:31:41;98978.44;;;16.96;66.00
21824;BME280;11074;48.596;9.238;2022-11-02T12:37:25;98971.38;;;17.10;65.36
21824;BME280;11074;48.596;9.238;2022-11-02T12:46:35;98952.94;;;17.27;64.68
21824;BME280;11074;48.596;9.238;2022-11-02T12:52:31;98955.56;;;17.47;64.01
21824;BME280;11074;48.596;9.238;2022-11-02T12:55:05;98954.19;;;17.60;62.79
21824;BME280;11074;48.596;9.238;2022-11-02T12:57:37;98942.81;;;17.63;63.01
21824;BME280;11074;48.596;9.238;2022-11-02T13:00:18;98953.00;;;17.81;62.66
21824;BME280;11074;48.596;9.238;2022-11-02T13:03:06;98940.81;;;17.84;62.35
21824;BME280;11074;48.596;9.238;2022-11-02T13:05:47;98944.63;;;17.83;62.26
21824;BME280;11074;48.596;9.238;2022-11-02T13:08:30;98946.22;;;17.84;62.25
21824;BME280;11074;48.596;9.238;2022-11-02T13:11:04;98943.69;;;17.97;61.48
21824;BME280;11074;48.596;9.238;2022-11-02T13:13:43;98953.09;;;18.05;60.95
21824;BME280;11074;48.596;9.238;2022-11-02T13:16:13;98944.59;;;18.22;60.81
21824;BME280;11074;48.596;9.238;2022-11-02T13:18:52;98940.75;;;18.33;59.98
21824;BME280;11074;48.596;9.238;2022-11-02T13:21:54;98943.59;;;18.46;59.28
21824;BME280;11074;48.596;9.238;2022-11-02T13:24:35;98938.38;;;18.60;58.52
21824;BME280;11074;48.596;9.238;2022-11-02T13:27:05;98930.16;;;18.70;58.36
21824;BME280;11074;48.596;9.238;2022-11-02T13:29:44;98937.59;;;18.83;57.64
21824;BME280;11074;48.596;9.238;2022-11-02T13:32:40;98940.72;;;18.66;55.94
21824;BME280;11074;48.596;9.238;2022-11-02T13:35:36;98935.47;;;19.04;56.69
21824;BME280;11074;48.596;9.238;2022-11-02T13:38:29;98915.47;;;19.23;55.43
21824;BME280;11074;48.596;9.238;2022-11-02T13:49:50;98917.72;;;21.25;49.62
21824;BME280;11074;48.596;9.238;2022-11-02T13:52:26;98909.06;;;21.86;49.25
21824;BME280;11074;48.596;9.238;2022-11-02T13:55:02;98909.63;;;22.41;47.72
21824;BME280;11074;48.596;9.238;2022-11-02T13:57:38;98908.56;;;22.73;47.17
21824;BME280;11074;48.596;9.238;2022-11-02T14:00:42;98907.72;;;22.94;46.73
21824;BME280;11074;48.596;9.238;2022-11-02T14:03:20;98904.97;;;22.86;46.09
21824;BME280;11074;48.596;9.238;2022-11-02T14:05:58;98916.25;;;22.71;46.11
21824;BME280;11074;48.596;9.238;2022-11-02T14:08:37;98914.28;;;22.63;44.45
21824;BME280;11074;48.596;9.238;2022-11-02T14:19:21;98915.47;;;21.27;49.20
21824;BME280;11074;48.596;9.238;2022-11-02T14:38:48;98915.56;;;19.37;55.29
21824;BME280;11074;48.596;9.238;2022-11-02T14:41:34;98912.88;;;19.13;56.13
21824;BME280;11074;48.596;9.238;2022-11-02T14:44:42;98916.94;;;18.87;57.03
21824;BME280;11074;48.596;9.238;2022-11-02T14:47:17;98915.53;;;18.66;57.04
21824;BME280;11074;48.596;9.238;2022-11-02T14:52:34;98913.88;;;18.41;59.32
21824;BME280;11074;48.596;9.238;2022-11-02T14:55:27;98894.81;;;18.23;59.23
21824;BME280;11074;48.596;9.238;2022-11-02T14:58:04;98905.69;;;18.12;58.88
21824;BME280;11074;48.596;9.238;2022-11-02T15:00:37;98906.59;;;18.03;60.28
21824;BME280;11074;48.596;9.238;2022-11-02T15:09:00;98899.97;;;17.85;61.22
21824;BME280;11074;48.596;9.238;2022-11-02T15:11:56;98897.28;;;17.80;61.79
21824;BME280;11074;48.596;9.238;2022-11-02T15:14:53;98890.03;;;17.71;61.81
21824;BME280;11074;48.596;9.238;2022-11-02T15:19:49;98903.91;;;17.54;61.44
21824;BME280;11074;48.596;9.238;2022-11-02T15:22:38;98907.72;;;17.48;61.57